createdAt,value
2022-08-07T00:02:39.803Z,99.90
2022-08-07T00:05:11.555Z,99.90
2022-08-07T00:07:43.729Z,99.90
2022-08-07T00:10:26.399Z,99.90
2022-08-07T00:13:17.624Z,99.90
2022-08-07T00:15:58.446Z,99.90
2022-08-07T00:18:32.169Z,99.90
2022-08-07T00:21:08.301Z,99.90
2022-08-07T00:24:17.136Z,98.40
2022-08-07T00:27:06.388Z,98.60
2022-08-07T00:29:41.340Z,99.90
2022-08-07T00:32:14.839Z,99.90
2022-08-07T00:34:50.635Z,99.90
2022-08-07T00:37:26.153Z,99.90
2022-08-07T00:40:02.192Z,99.10
2022-08-07T00:42:33.480Z,99.90
2022-08-07T00:45:16.285Z,99.00
2022-08-07T00:48:07.583Z,99.90
2022-08-07T00:50:51.587Z,98.60
2022-08-07T00:53:24.259Z,98.40
2022-08-07T00:56:03.003Z,97.50
2022-08-07T00:58:35.426Z,97.30
2022-08-07T01:01:08.679Z,96.50
2022-08-07T01:03:55.766Z,96.30
2022-08-07T01:06:31.742Z,96.50
2022-08-07T01:09:04.617Z,96.50
2022-08-07T01:12:09.745Z,97.60
2022-08-07T01:14:30.044Z,96.40
2022-08-07T01:17:07.219Z,95.40
2022-08-07T01:19:39.950Z,95.00
2022-08-07T01:22:22.781Z,95.80
2022-08-07T01:25:02.911Z,94.80
2022-08-07T01:27:53.817Z,95.40
2022-08-07T01:30:28.364Z,95.30
2022-08-07T01:33:00.621Z,95.30
2022-08-07T01:35:52.868Z,95.10
2022-08-07T01:38:29.186Z,95.00
2022-08-07T01:41:03.827Z,94.60
2022-08-07T01:43:38.491Z,93.50
2022-08-07T01:46:12.259Z,92.80
2022-08-07T01:48:46.753Z,93.30
2022-08-07T01:51:58.768Z,92.90
2022-08-07T01:54:21.950Z,93.70
2022-08-07T01:57:24.103Z,94.40
2022-08-07T02:00:13.466Z,94.10
2022-08-07T02:03:12.585Z,94.50
2022-08-07T02:05:48.526Z,94.70
2022-08-07T02:08:33.520Z,94.10
2022-08-07T02:11:10.920Z,94.50
2022-08-07T02:14:04.113Z,95.20
2022-08-07T02:16:35.838Z,96.60
2022-08-07T02:20:04.902Z,95.90
2022-08-07T02:22:07.889Z,95.30
2022-08-07T02:24:41.336Z,95.80
2022-08-07T02:27:20.758Z,96.60
2022-08-07T02:29:55.238Z,96.20
2022-08-07T02:32:30.150Z,96.60
2022-08-07T02:35:02.716Z,96.60
2022-08-07T02:37:44.366Z,96.60
2022-08-07T02:40:35.110Z,96.10
2022-08-07T02:43:11.438Z,96.00
2022-08-07T02:46:00.576Z,97.00
2022-08-07T02:48:34.679Z,97.40
2022-08-07T02:51:29.282Z,97.20
2022-08-07T02:54:03.827Z,97.10
2022-08-07T02:56:37.476Z,97.90
2022-08-07T02:59:16.369Z,97.30
2022-08-07T03:01:52.192Z,97.10
2022-08-07T03:04:36.580Z,98.50
2022-08-07T03:07:10.683Z,99.00
2022-08-07T03:09:44.414Z,98.70
2022-08-07T03:12:22.309Z,99.10
2022-08-07T03:15:07.778Z,99.90
2022-08-07T03:17:54.062Z,99.90
2022-08-07T03:20:26.783Z,99.90
2022-08-07T03:22:59.845Z,99.90
2022-08-07T03:25:40.331Z,99.90
2022-08-07T03:28:37.592Z,99.90
2022-08-07T03:31:26.284Z,99.90
2022-08-07T03:34:18.702Z,99.90
2022-08-07T03:36:57.467Z,99.90
2022-08-07T03:39:59.159Z,99.90
2022-08-07T03:42:23.787Z,99.90
2022-08-07T03:44:58.919Z,99.90
2022-08-07T03:47:47.658Z,99.90
2022-08-07T03:50:24.639Z,99.90
2022-08-07T03:53:01.939Z,99.90
2022-08-07T03:55:58.527Z,99.90
2022-08-07T03:59:05.757Z,99.90
2022-08-07T04:01:21.449Z,99.90
2022-08-07T04:03:57.306Z,99.90
2022-08-07T04:06:37.383Z,99.90
2022-08-07T04:09:15.687Z,99.90
2022-08-07T04:12:27.759Z,99.90
2022-08-07T04:14:46.038Z,99.90
2022-08-07T04:18:58.220Z,99.90
2022-08-07T04:20:17.771Z,99.90
2022-08-07T04:22:53.569Z,99.90
2022-08-07T04:25:39.008Z,99.90
2022-08-07T04:28:13.902Z,99.90
2022-08-07T04:31:06.349Z,99.90
2022-08-07T04:33:40.555Z,99.90
2022-08-07T04:36:14.836Z,99.90
2022-08-07T04:38:46.302Z,99.90
2022-08-07T04:41:19.132Z,99.90
2022-08-07T04:44:12.927Z,99.90
2022-08-07T04:47:04.400Z,99.90
2022-08-07T04:49:57.384Z,99.90
2022-08-07T04:52:46.845Z,99.90
2022-08-07T04:58:11.623Z,99.90
2022-08-07T04:58:49.780Z,99.90
2022-08-07T05:01:30.356Z,99.90
2022-08-07T05:04:12.512Z,99.90
2022-08-07T05:07:01.177Z,99.90
2022-08-07T05:10:11.762Z,99.90
2022-08-07T05:12:53.005Z,99.90
2022-08-07T05:15:32.248Z,99.90
2022-08-07T05:18:09.343Z,99.90
2022-08-07T05:20:45.627Z,99.90
2022-08-07T05:23:35.474Z,99.90
2022-08-07T05:26:18.846Z,99.90
2022-08-07T05:29:04.375Z,99.90
2022-08-07T05:31:39.612Z,99.90
2022-08-07T05:34:18.969Z,99.90
2022-08-07T05:36:53.817Z,99.90
2022-08-07T05:40:06.374Z,99.90
2022-08-07T05:42:34.747Z,99.90
2022-08-07T05:45:25.734Z,99.90
2022-08-07T05:48:02.649Z,99.90
2022-08-07T05:50:39.580Z,99.90
2022-08-07T05:54:13.677Z,99.90
2022-08-07T05:56:08.245Z,99.90
2022-08-07T05:58:52.585Z,99.90
2022-08-07T06:01:25.938Z,99.90
2022-08-07T06:04:01.483Z,99.90
2022-08-07T06:06:33.328Z,99.90
2022-08-07T06:09:05.357Z,99.90
2022-08-07T06:11:37.467Z,99.90
2022-08-07T06:14:21.008Z,99.90
2022-08-07T06:17:01.401Z,99.90
2022-08-07T06:19:57.745Z,99.90
2022-08-07T06:22:38.915Z,99.90
2022-08-07T06:25:12.399Z,99.90
2022-08-07T06:28:01.622Z,99.90
2022-08-07T06:30:41.433Z,99.90
2022-08-07T06:33:16.739Z,99.90
2022-08-07T06:36:12.020Z,99.90
2022-08-07T06:38:58.875Z,99.90
2022-08-07T06:42:01.252Z,99.90
2022-08-07T06:44:31.260Z,99.90
2022-08-07T06:47:12.028Z,99.90
2022-08-07T06:49:58.741Z,99.90
2022-08-07T06:52:35.711Z,99.90
2022-08-07T06:55:33.271Z,99.90
2022-08-07T06:58:10.198Z,99.90
2022-08-07T07:00:44.130Z,99.90
2022-08-07T07:03:17.765Z,99.90
2022-08-07T07:06:03.484Z,99.90
2022-08-07T07:08:39.821Z,99.90
2022-08-07T07:12:09.539Z,99.90
2022-08-07T07:14:10.531Z,99.90
2022-08-07T07:16:50.961Z,99.90
2022-08-07T07:19:55.852Z,99.90
2022-08-07T07:22:35.895Z,99.90
2022-08-07T07:26:35.031Z,99.90
2022-08-07T07:28:42.387Z,99.90
2022-08-07T07:31:08.018Z,99.90
2022-08-07T07:33:41.456Z,99.90
2022-08-07T07:36:17.207Z,99.90
2022-08-07T07:38:49.688Z,99.90
2022-08-07T07:41:30.945Z,99.90
2022-08-07T07:44:26.613Z,99.90
2022-08-07T07:47:12.120Z,99.90
2022-08-07T07:50:35.668Z,99.90
2022-08-07T07:52:47.678Z,99.90
2022-08-07T07:55:21.659Z,99.90
2022-08-07T07:57:58.227Z,99.90
2022-08-07T08:00:34.181Z,99.90
2022-08-07T08:03:16.544Z,99.90
2022-08-07T08:05:54.813Z,99.90
2022-08-07T08:08:37.011Z,99.90
2022-08-07T08:11:13.846Z,99.90
2022-08-07T08:13:55.645Z,99.90
2022-08-07T08:16:35.879Z,99.90
2022-08-07T08:19:09.712Z,99.90
2022-08-07T08:22:08.066Z,99.90
2022-08-07T08:25:18.198Z,99.90
2022-08-07T08:28:01.946Z,99.90
2022-08-07T08:30:37.608Z,99.90
2022-08-07T08:33:20.507Z,99.90
2022-08-07T08:35:56.955Z,99.90
2022-08-07T08:38:40.424Z,99.90
2022-08-07T08:41:26.323Z,99.90
2022-08-07T08:44:29.180Z,99.90
2022-08-07T08:47:19.131Z,99.90
2022-08-07T08:50:07.365Z,99.90
2022-08-07T08:52:51.501Z,99.90
2022-08-07T08:55:54.371Z,99.90
2022-08-07T08:58:35.666Z,99.90
2022-08-07T09:01:18.478Z,99.90
2022-08-07T09:04:02.666Z,99.90
2022-08-07T09:06:48.146Z,99.90
2022-08-07T09:09:56.669Z,99.90
2022-08-07T09:12:53.141Z,99.90
2022-08-07T09:16:22.612Z,99.90
2022-08-07T09:19:44.764Z,99.90
2022-08-07T09:22:40.014Z,99.90
2022-08-07T09:25:15.041Z,99.90
2022-08-07T09:28:02.053Z,99.90
2022-08-07T09:30:46.445Z,99.90
2022-08-07T09:33:57.227Z,99.90
2022-08-07T09:36:35.730Z,99.90
2022-08-07T09:39:54.533Z,99.90
2022-08-07T09:42:28.379Z,99.90
2022-08-07T09:47:24.819Z,99.90
2022-08-07T09:48:19.221Z,99.90
2022-08-07T09:51:26.026Z,99.90
2022-08-07T09:54:03.493Z,99.90
2022-08-07T09:57:02.186Z,99.90
2022-08-07T10:00:00.928Z,99.90
2022-08-07T10:03:08.357Z,99.90
2022-08-07T10:06:28.268Z,99.90
2022-08-07T10:09:42.599Z,99.90
2022-08-07T10:12:53.933Z,99.90
2022-08-07T10:15:44.944Z,99.90
2022-08-07T10:18:53.902Z,99.90
2022-08-07T10:22:12.313Z,99.90
2022-08-07T10:25:07.759Z,99.90
2022-08-07T10:28:06.799Z,99.90
2022-08-07T10:30:47.785Z,99.90
2022-08-07T10:34:06.332Z,99.90
2022-08-07T10:36:38.742Z,99.90
2022-08-07T10:39:22.105Z,99.90
2022-08-07T10:42:09.875Z,99.90
2022-08-07T10:45:01.747Z,99.90
2022-08-07T10:47:52.775Z,99.90
2022-08-07T10:50:28.815Z,99.90
2022-08-07T10:53:11.408Z,99.90
2022-08-07T10:55:56.710Z,99.90
2022-08-07T10:59:01.099Z,99.90
2022-08-07T11:02:05.122Z,99.90
2022-08-07T11:04:58.978Z,99.90
2022-08-07T11:07:59.424Z,99.90
2022-08-07T11:10:38.221Z,99.90
2022-08-07T11:14:43.389Z,99.90
2022-08-07T11:16:19.934Z,99.90
2022-08-07T11:18:55.842Z,99.90
2022-08-07T11:21:43.111Z,99.90
2022-08-07T11:24:24.118Z,99.90
2022-08-07T11:27:01.272Z,99.90
2022-08-07T11:29:47.285Z,99.90
2022-08-07T11:32:27.394Z,99.90
2022-08-07T11:35:06.666Z,99.90
2022-08-07T11:38:12.356Z,99.90
2022-08-07T11:40:52.708Z,99.90
2022-08-07T11:43:29.520Z,99.90
2022-08-07T11:46:32.921Z,99.90
2022-08-07T11:50:11.384Z,99.90
2022-08-07T11:52:59.149Z,99.90
2022-08-07T11:56:09.274Z,99.90
2022-08-07T11:58:53.420Z,99.90
2022-08-07T12:01:59.042Z,99.90
2022-08-07T12:04:47.093Z,99.90
2022-08-07T12:07:38.685Z,99.90
2022-08-07T12:10:19.852Z,99.90
2022-08-07T12:13:02.887Z,99.90
2022-08-07T12:16:05.914Z,99.90
2022-08-07T12:18:45.182Z,99.90
2022-08-07T12:22:36.567Z,99.90
2022-08-07T12:24:37.718Z,99.90
2022-08-07T12:27:28.068Z,99.90
2022-08-07T12:30:13.204Z,99.90
2022-08-07T12:32:51.017Z,99.90
2022-08-07T12:35:24.242Z,99.90
2022-08-07T12:38:09.355Z,99.90
2022-08-07T12:40:47.375Z,99.90
2022-08-07T12:44:02.349Z,99.90
2022-08-07T12:46:32.400Z,99.90
2022-08-07T12:49:25.408Z,99.90
2022-08-07T12:52:13.785Z,99.90
2022-08-07T12:55:05.263Z,99.90
2022-08-07T12:58:01.163Z,99.90
2022-08-07T13:00:50.455Z,99.90
2022-08-07T13:04:02.224Z,99.90
2022-08-07T13:07:01.594Z,99.90
2022-08-07T13:10:28.730Z,99.90
2022-08-07T13:13:49.095Z,99.90
2022-08-07T13:16:19.619Z,99.90
2022-08-07T13:19:00.434Z,99.90
2022-08-07T13:21:51.726Z,99.90
2022-08-07T13:24:31.102Z,99.90
2022-08-07T13:27:12.844Z,99.90
2022-08-07T13:29:55.489Z,99.90
2022-08-07T13:32:37.399Z,99.90
2022-08-07T13:35:15.776Z,99.90
2022-08-07T13:38:02.237Z,99.90
2022-08-07T13:40:42.142Z,99.90
2022-08-07T13:43:18.663Z,99.90
2022-08-07T13:46:11.415Z,99.90
2022-08-07T13:48:59.412Z,99.90
2022-08-07T13:52:16.382Z,99.90
2022-08-07T13:54:33.634Z,99.90
2022-08-07T13:57:10.956Z,99.90
2022-08-07T13:59:57.169Z,99.90
2022-08-07T14:02:39.478Z,99.90
2022-08-07T14:05:18.510Z,99.90
2022-08-07T14:07:59.538Z,99.90
2022-08-07T14:10:42.024Z,99.90
2022-08-07T14:13:18.011Z,99.90
2022-08-07T14:15:58.609Z,99.90
2022-08-07T14:18:34.975Z,99.90
2022-08-07T14:22:01.089Z,99.90
2022-08-07T14:24:10.607Z,99.90
2022-08-07T14:26:50.397Z,99.90
2022-08-07T14:30:07.313Z,99.90
2022-08-07T14:32:24.948Z,99.90
2022-08-07T14:34:58.882Z,99.90
2022-08-07T14:37:36.260Z,99.90
2022-08-07T14:40:26.683Z,99.90
2022-08-07T14:43:57.321Z,99.90
2022-08-07T14:46:09.172Z,99.90
2022-08-07T14:48:45.269Z,99.90
2022-08-07T14:52:04.199Z,99.90
2022-08-07T14:54:30.896Z,99.90
2022-08-07T14:57:08.706Z,99.90
2022-08-07T15:02:39.429Z,99.90
2022-08-07T15:05:20.607Z,99.90
2022-08-07T15:07:56.047Z,99.90
2022-08-07T15:10:30.628Z,99.90
2022-08-07T15:13:12.341Z,99.90
2022-08-07T15:15:53.270Z,99.90
2022-08-07T15:18:35.836Z,99.90
2022-08-07T15:21:58.856Z,99.90
2022-08-07T15:27:09.278Z,99.90
2022-08-07T15:38:30.925Z,99.90
2022-08-07T15:42:42.088Z,99.90
2022-08-07T15:44:08.008Z,99.90
2022-08-07T15:50:04.858Z,99.90
2022-08-07T15:52:31.366Z,99.90
2022-08-07T15:55:11.618Z,99.90
2022-08-07T15:57:49.446Z,99.90
2022-08-07T16:00:33.462Z,99.90
2022-08-07T16:03:21.582Z,99.90
2022-08-07T16:06:08.238Z,99.90
2022-08-07T16:08:45.953Z,99.90
2022-08-07T16:11:40.108Z,99.90
2022-08-07T16:14:19.324Z,99.90
2022-08-07T16:17:13.096Z,99.90
2022-08-07T16:20:05.948Z,99.90
2022-08-07T16:22:56.827Z,99.90
2022-08-07T16:25:55.035Z,99.90
2022-08-07T16:30:07.195Z,99.90
2022-08-07T16:32:03.815Z,99.90
2022-08-07T16:34:53.704Z,99.90
2022-08-07T16:38:05.759Z,99.90
2022-08-07T16:41:07.242Z,99.90
2022-08-07T16:44:04.149Z,99.90
2022-08-07T16:47:25.183Z,99.90
2022-08-07T16:50:38.724Z,99.90
2022-08-07T16:53:57.275Z,99.90
2022-08-07T16:56:42.983Z,99.90
2022-08-07T16:59:46.845Z,99.90
2022-08-07T17:02:54.246Z,99.90
2022-08-07T17:06:02.119Z,99.90
2022-08-07T17:09:09.746Z,99.90
2022-08-07T17:12:04.206Z,99.90
2022-08-07T17:14:49.919Z,99.90
2022-08-07T17:17:44.523Z,99.90
2022-08-07T17:20:33.310Z,99.90
2022-08-07T17:23:22.212Z,99.90
2022-08-07T17:26:23.603Z,99.90
2022-08-07T17:30:12.697Z,99.90
2022-08-07T17:32:30.843Z,99.90
2022-08-07T17:35:51.268Z,99.90
2022-08-07T17:38:33.349Z,99.90
2022-08-07T17:42:00.964Z,99.90
2022-08-07T17:44:14.701Z,99.90
2022-08-07T17:47:08.402Z,99.90
2022-08-07T17:49:45.394Z,99.90
2022-08-07T17:52:30.678Z,99.90
2022-08-07T17:55:12.791Z,99.90
2022-08-07T17:58:01.691Z,99.90
2022-08-07T18:00:48.843Z,99.90
2022-08-07T18:03:27.677Z,99.90
2022-08-07T18:06:09.281Z,99.90
2022-08-07T18:09:02.229Z,99.90
2022-08-07T18:12:16.352Z,99.90
2022-08-07T18:14:46.801Z,99.90
2022-08-07T18:18:39.715Z,99.90
2022-08-07T18:21:03.288Z,99.90
2022-08-07T18:23:43.747Z,99.90
2022-08-07T18:26:27.909Z,99.90
2022-08-07T18:30:07.718Z,99.90
2022-08-07T18:32:20.417Z,99.90
2022-08-07T18:35:13.189Z,99.90
2022-08-07T18:38:56.300Z,99.90
2022-08-07T18:41:17.156Z,99.90
2022-08-07T18:44:02.060Z,99.90
2022-08-07T18:46:46.351Z,99.90
2022-08-07T18:50:30.173Z,99.90
2022-08-07T18:52:55.124Z,99.90
2022-08-07T18:55:55.902Z,99.90
2022-08-07T18:58:51.486Z,99.90
2022-08-07T19:02:32.623Z,99.90
2022-08-07T19:04:56.212Z,99.90
2022-08-07T19:07:51.594Z,99.90
2022-08-07T19:10:51.732Z,99.90
2022-08-07T19:13:29.749Z,99.90
2022-08-07T19:17:05.086Z,99.90
2022-08-07T19:19:13.142Z,99.90
2022-08-07T19:22:04.750Z,99.90
2022-08-07T19:24:48.052Z,99.90
2022-08-07T19:28:57.599Z,99.90
2022-08-07T19:30:56.747Z,99.90
2022-08-07T19:33:15.388Z,99.90
2022-08-07T19:35:55.934Z,99.90
2022-08-07T19:38:36.266Z,99.90
2022-08-07T19:41:44.327Z,99.90
2022-08-07T19:44:21.739Z,99.90
2022-08-07T19:46:59.177Z,99.90
2022-08-07T19:49:57.803Z,99.90
2022-08-07T19:52:28.092Z,99.90
2022-08-07T19:55:04.241Z,99.90
2022-08-07T19:58:02.227Z,99.90
2022-08-07T20:00:39.548Z,99.90
2022-08-07T20:03:37.312Z,99.90
2022-08-07T20:06:15.244Z,99.90
2022-08-07T20:09:03.076Z,99.90
2022-08-07T20:12:23.006Z,99.90
2022-08-07T20:14:53.762Z,99.90
2022-08-07T20:17:35.872Z,99.90
2022-08-07T20:20:12.818Z,99.90
2022-08-07T20:22:51.924Z,99.90
2022-08-07T20:25:25.811Z,99.90
2022-08-07T20:28:03.413Z,99.90
2022-08-07T20:30:38.242Z,99.90
2022-08-07T20:33:24.516Z,99.90
2022-08-07T20:36:05.116Z,99.90
2022-08-07T20:38:53.375Z,99.90
2022-08-07T20:41:38.419Z,99.90
2022-08-07T20:44:14.886Z,99.90
2022-08-07T20:47:04.278Z,99.90
2022-08-07T20:50:00.042Z,99.90
2022-08-07T20:52:51.062Z,99.90
2022-08-07T20:55:26.565Z,99.90
2022-08-07T20:58:02.268Z,99.90
2022-08-07T21:00:45.342Z,99.90
2022-08-07T21:03:23.201Z,99.90
2022-08-07T21:06:04.428Z,99.90
2022-08-07T21:09:02.694Z,99.90
2022-08-07T21:11:51.159Z,99.90
2022-08-07T21:14:34.216Z,99.90
2022-08-07T21:18:03.913Z,99.90
2022-08-07T21:20:09.832Z,99.90
2022-08-07T21:22:53.282Z,99.90
2022-08-07T21:25:30.461Z,99.90
2022-08-07T21:28:19.084Z,99.90
2022-08-07T21:31:31.363Z,99.90
2022-08-07T21:34:19.885Z,99.90
2022-08-07T21:36:59.301Z,99.90
2022-08-07T21:39:45.973Z,99.90
2022-08-07T21:42:46.547Z,99.90
2022-08-07T21:46:07.643Z,99.90
2022-08-07T21:48:33.336Z,99.90
2022-08-07T21:51:19.745Z,99.90
2022-08-07T21:53:59.333Z,99.90
2022-08-07T21:56:47.829Z,99.90
2022-08-07T22:00:05.394Z,99.90
2022-08-07T22:02:46.973Z,99.90
2022-08-07T22:05:45.710Z,99.90
2022-08-07T22:08:21.056Z,99.40
2022-08-07T22:10:58.526Z,99.90
2022-08-07T22:13:51.943Z,99.90
2022-08-07T22:16:44.321Z,99.90
2022-08-07T22:19:31.970Z,99.60
2022-08-07T22:22:18.141Z,99.10
2022-08-07T22:25:12.105Z,98.50
2022-08-07T22:28:20.079Z,98.60
2022-08-07T22:31:00.460Z,98.30
2022-08-07T22:33:57.434Z,97.90
2022-08-07T22:36:46.426Z,97.90
2022-08-07T22:39:26.689Z,98.30
2022-08-07T22:42:19.415Z,96.80
2022-08-07T22:44:58.798Z,96.40
2022-08-07T22:48:02.842Z,96.30
2022-08-07T22:50:51.325Z,95.20
2022-08-07T22:54:08.236Z,94.70
2022-08-07T22:56:49.445Z,94.10
2022-08-07T22:59:52.136Z,94.30
2022-08-07T23:02:42.924Z,93.90
2022-08-07T23:06:08.220Z,94.90
2022-08-07T23:08:56.002Z,93.00
2022-08-07T23:11:45.856Z,92.80
2022-08-07T23:14:45.929Z,92.60
2022-08-07T23:17:41.526Z,91.90
2022-08-07T23:20:51.744Z,91.90
2022-08-07T23:24:04.108Z,91.30
2022-08-07T23:27:01.896Z,90.50
2022-08-07T23:30:37.094Z,90.90
2022-08-07T23:34:23.297Z,90.60
2022-08-07T23:36:34.343Z,90.80
2022-08-07T23:39:16.033Z,90.60
2022-08-07T23:42:15.659Z,89.00
2022-08-07T23:45:33.554Z,88.10
2022-08-07T23:48:27.347Z,88.80
2022-08-07T23:51:03.011Z,88.40
2022-08-07T23:53:51.221Z,87.00
2022-08-07T23:56:28.192Z,88.80
2022-08-07T23:59:10.181Z,90.00
